CST,Max TemperatureF,Mean TemperatureF,Min TemperatureF,Max Dew PointF,MeanDew PointF,Min DewpointF,Max Humidity, Mean Humidity, Min Humidity, Max Sea Level PressureIn, Mean Sea Level PressureIn, Min Sea Level PressureIn, Max VisibilityMiles, Mean VisibilityMiles, Min VisibilityMiles, Max Wind SpeedMPH, Mean Wind SpeedMPH, Max Gust SpeedMPH,PrecipitationIn, CloudCover, Events, WindDirDegrees
2013-12-1,36,30,23,24,23,21,88,74,59,30.20,30.08,29.86,10,10,8,13,4,16,0.00,7,,139
2013-12-2,48,39,30,31,28,24,82,66,50,29.82,29.61,29.51,10,10,8,13,6,16,0.00,5,,167
2013-12-3,33,29,25,30,27,23,100,93,85,29.78,29.67,29.57,10,4,0,18,10,23,0.06,8,Fog-Rain-Snow,17
2013-12-4,25,16,7,23,13,2,92,83,73,30.02,29.75,29.62,10,3,0,29,17,39,0.53,8,Fog-Snow,312
2013-12-5,7,0,-7,2,-6,-14,87,77,66,30.51,30.30,29.94,10,10,8,25,15,33,T,2,,295
2013-12-6,-3,-8,-14,-11,-15,-19,81,73,65,30.79,30.66,30.51,10,10,10,15,8,20,0.00,2,,289
2013-12-7,2,-8,-19,-2,-12,-23,89,74,59,30.83,30.68,30.39,10,8,1,9,5,12,0.02,5,Snow,73
2013-12-8,12,4,-4,6,2,-7,91,84,76,30.47,30.21,30.05,10,4,1,14,6,17,0.12,7,Snow,144
2013-12-9,21,6,-10,13,-5,-15,86,76,65,30.32,30.14,29.80,10,9,2,21,12,27,T,3,Snow,255
2013-12-10,23,12,0,18,9,-4,88,75,61,30.41,30.10,29.81,10,5,0,31,11,41,0.08,6,Fog-Snow,309
2013-12-11,11,-1,-14,4,-8,-17,86,76,65,30.69,30.55,30.36,10,10,10,24,10,30,0.00,2,,247
2013-12-12,29,17,5,17,11,4,92,77,62,30.35,30.25,30.10,10,10,7,12,3,18,0.00,4,,210
2013-12-13,18,11,4,12,9,2,96,86,76,30.29,30.14,30.01,10,9,6,22,13,26,T,7,Snow,50
2013-12-14,12,8,3,6,4,1,91,81,70,30.30,30.24,30.14,10,10,3,16,7,18,T,7,Snow,313
2013-12-15,11,9,6,7,3,1,83,78,73,30.19,30.10,29.98,10,9,2,14,8,16,0.01,7,Snow,93
2013-12-16,31,18,4,25,14,2,88,82,75,30.14,30.07,30.00,10,10,10,17,8,23,0.00,3,,249
2013-12-17,34,24,14,26,19,12,92,66,40,30.26,30.17,30.04,10,10,10,21,10,29,T,4,,274
2013-12-18,40,28,16,27,23,16,96,78,59,29.92,29.78,29.68,10,10,10,14,6,17,0.00,5,,221
2013-12-19,25,16,6,22,6,1,92,83,73,30.12,30.00,29.85,10,9,5,23,15,28,T,8,Snow,29
2013-12-20,14,10,6,9,5,2,92,82,71,30.09,29.99,29.87,10,10,5,15,6,18,T,8,Snow,332
2013-12-21,17,9,1,11,7,-1,95,85,74,30.04,29.96,29.87,10,10,10,17,7,20,0.00,7,,38
2013-12-22,10,2,-7,5,-3,-12,87,80,72,30.49,30.25,30.03,10,9,2,16,11,22,0.01,4,Snow,324
2013-12-23,-3,-10,-18,-14,-19,-23,83,68,52,30.68,30.62,30.50,10,10,10,17,8,21,0.00,0,,289
2013-12-24,21,3,-16,17,8,-20,100,78,56,30.55,30.14,30.00,10,5,0,25,11,32,0.19,7,Fog-Snow,179
2013-12-25,32,23,13,27,19,11,96,80,63,30.28,30.18,30.05,10,10,2,29,10,35,T,6,Snow,266
2013-12-26,35,24,13,24,20,14,92,78,63,30.25,30.15,30.09,10,10,10,14,5,17,0.00,3,,256
2013-12-27,42,26,10,31,21,8,100,82,64,30.23,30.10,29.98,10,8,1,13,4,17,0.00,3,Fog,225
2013-12-28,44,24,4,30,19,-3,100,78,55,30.27,29.94,29.72,10,8,0,35,14,44,T,4,Fog-Snow,254
2013-12-29,4,-2,-9,-4,-13,-20,75,63,51,30.53,30.39,30.22,10,10,10,33,12,40,0.00,3,,327
2013-12-30,16,8,-1,10,2,-12,88,74,59,30.33,30.15,29.98,10,7,1,17,8,22,0.06,6,Snow,182
2013-12-31,6,1,-4,1,-3,-9,85,78,64,30.37,30.26,30.15,10,6,1,21,11,26,0.05,8,Snow,70